This is the latest recevied weather packets stored in our database for station/object KE8URB. If no packets are shown the sender has not sent any weather packets the latest 10 day(s).
| Time | Temp. | Humidity | Pressure | Rain* | Wind** | Luminosity | Snow |
|---|---|---|---|---|---|---|---|
| 1787449153 | 17.22° C | 99% | 1011.8 hPa | 0 mm | - | 0 W/m² | - |
| 1787448853 | 17.22° C | 99% | 1011.6 hPa | 0 mm | - | 0 W/m² | - |
| 1787448548 | 17.22° C | 99% | 1011.6 hPa | 0 mm | - | 0 W/m² | - |
| 1787448245 | 17.22° C | 99% | 1011.4 hPa | 0 mm | - | 0 W/m² | - |
| 1787447945 | 17.22° C | 99% | 1011.5 hPa | 0 mm | - | 0 W/m² | - |
| 1787447643 | 17.22° C | 99% | 1011.3 hPa | 0 mm | - | 0 W/m² | - |
| 1787447339 | 17.22° C | 99% | 1011.5 hPa | 0 mm | - | 0 W/m² | - |
| 1787447036 | 16.67° C | 99% | 1011.5 hPa | 0 mm | - | 0 W/m² | - |
| 1787446736 | 16.67° C | 99% | 1011.4 hPa | 0 mm | - | 0 W/m² | - |
| 1787446432 | 16.67° C | 99% | 1011.4 hPa | 0 mm | - | 0 W/m² | - |
| 1787446127 | 16.67° C | 99% | 1010.9 hPa | 0 mm | - | 0 W/m² | - |
| 1787445823 | 16.67° C | 99% | 1011.3 hPa | 0 mm | - | 0 W/m² | - |
| 1787445520 | 16.67° C | 99% | 1011 hPa | 0 mm | - | 0 W/m² | - |
| 1787445215 | 17.22° C | 99% | 1011 hPa | 0 mm | - | 0 W/m² | - |
| 1787444915 | 17.22° C | 99% | 1010.7 hPa | 0 mm | - | 0 W/m² | - |
| 1787444612 | 17.22° C | 99% | 1010.6 hPa | 0 mm | - | 0 W/m² | - |
| 1787444308 | 17.22° C | 99% | 1011 hPa | 0 mm | - | 0 W/m² | - |
| 1787444007 | 17.22° C | 98% | 1010.9 hPa | 0 mm | - | 1 W/m² | - |
| 1787443706 | 17.78° C | 98% | 1010.9 hPa | 0 mm | - | 4 W/m² | - |
| 1787443402 | 17.78° C | 97% | 1011 hPa | 4.83 mm | - | 8 W/m² | - |
| 1787443101 | 17.22° C | 97% | 1011.3 hPa | 10.67 mm | - | 15 W/m² | - |
| 1787442796 | 17.78° C | 95% | 1011.3 hPa | 11.94 mm | - | 21 W/m² | - |
| 1787442493 | 17.78° C | 94% | 1011.6 hPa | 6.1 mm | - | 12 W/m² | - |
| 1787442188 | 18.89° C | 97% | 1011.9 hPa | 1.27 mm | - | 6 W/m² | - |
| 1787441884 | 19.44° C | 97% | 1012.1 hPa | 0 mm | - | 0 W/m² | - |
* Rain latest hour (hover to see other rain measurements)
** Current wind speed in m/s (hover to see current wind gust speed)